createdAt,value
2018-06-21T00:01:07.948Z,6.47
2018-06-21T00:03:37.249Z,5.87
2018-06-21T00:06:06.552Z,8.70
2018-06-21T00:08:35.831Z,8.57
2018-06-21T00:11:05.273Z,6.20
2018-06-21T00:13:34.557Z,7.13
2018-06-21T00:16:03.903Z,7.33
2018-06-21T00:18:33.272Z,5.80
2018-06-21T00:21:02.855Z,6.93
2018-06-21T00:23:32.152Z,7.70
2018-06-21T00:26:01.609Z,6.87
2018-06-21T00:28:30.897Z,8.07
2018-06-21T00:31:00.204Z,7.17
2018-06-21T00:33:29.522Z,6.40
2018-06-21T00:35:58.802Z,5.70
2018-06-21T00:38:28.118Z,6.93
2018-06-21T00:40:57.424Z,6.17
2018-06-21T00:43:26.680Z,8.47
2018-06-21T00:45:55.968Z,6.30
2018-06-21T00:48:25.274Z,6.20
2018-06-21T00:50:54.607Z,7.17
2018-06-21T00:53:23.942Z,6.23
2018-06-21T00:56:09.938Z,5.97
2018-06-21T00:58:39.228Z,16.07
2018-06-21T01:01:08.706Z,5.97
2018-06-21T01:03:38.049Z,6.60
2018-06-21T01:08:28.876Z,7.03
2018-06-21T01:10:58.253Z,7.27
2018-06-21T01:13:27.536Z,7.73
2018-06-21T01:15:56.816Z,7.57
2018-06-21T01:18:26.133Z,7.00
2018-06-21T01:20:55.534Z,7.70
2018-06-21T01:23:24.904Z,6.87
2018-06-21T01:25:54.209Z,7.27
2018-06-21T01:28:23.507Z,10.73
2018-06-21T01:30:52.902Z,9.13
2018-06-21T01:33:22.218Z,9.57
2018-06-21T01:35:51.579Z,13.77
2018-06-21T01:38:20.852Z,13.80
2018-06-21T01:40:50.160Z,17.97
2018-06-21T01:43:19.645Z,9.73
2018-06-21T01:45:48.703Z,16.33
2018-06-21T01:48:17.971Z,14.77
2018-06-21T01:50:47.250Z,16.03
2018-06-21T01:53:16.552Z,33.03
2018-06-21T01:55:45.916Z,29.20
2018-06-21T01:58:15.284Z,37.33
2018-06-21T02:00:44.656Z,32.03
2018-06-21T02:03:14.014Z,35.40
2018-06-21T02:05:43.358Z,31.57
2018-06-21T02:08:12.678Z,39.93
2018-06-21T02:10:43.091Z,35.37
2018-06-21T02:13:13.449Z,31.00
2018-06-21T02:15:43.201Z,30.40
2018-06-21T02:18:12.930Z,27.97
2018-06-21T02:20:42.279Z,23.23
2018-06-21T02:23:11.736Z,22.07
2018-06-21T02:25:41.391Z,20.87
2018-06-21T02:28:11.638Z,23.47
2018-06-21T02:30:41.132Z,21.43
2018-06-21T02:33:11.192Z,24.83
2018-06-21T02:35:41.681Z,27.73
2018-06-21T02:38:12.413Z,22.77
2018-06-21T02:40:42.491Z,22.00
2018-06-21T02:43:12.905Z,21.27
2018-06-21T02:45:42.696Z,14.87
2018-06-21T02:48:12.976Z,14.23
2018-06-21T02:50:43.057Z,10.90
2018-06-21T02:53:13.164Z,11.33
2018-06-21T02:55:42.818Z,11.07
2018-06-21T02:58:12.171Z,12.53
2018-06-21T03:00:41.663Z,10.40
2018-06-21T03:03:11.233Z,9.73
2018-06-21T03:05:40.649Z,9.53
2018-06-21T03:08:12.200Z,10.67
2018-06-21T03:10:42.475Z,11.17
2018-06-21T03:13:11.899Z,11.10
2018-06-21T03:15:42.575Z,11.20
2018-06-21T03:18:12.516Z,8.93
2018-06-21T03:20:42.143Z,10.87
2018-06-21T03:23:12.495Z,9.10
2018-06-21T03:25:42.145Z,9.10
2018-06-21T03:28:11.618Z,9.60
2018-06-21T03:30:41.280Z,12.17
2018-06-21T03:33:10.668Z,11.70
2018-06-21T03:35:40.036Z,12.60
2018-06-21T03:38:09.421Z,14.23
2018-06-21T03:40:38.782Z,13.17
2018-06-21T03:43:08.150Z,13.93
2018-06-21T03:45:37.510Z,14.83
2018-06-21T03:48:06.899Z,10.00
2018-06-21T03:50:36.766Z,14.70
2018-06-21T03:53:06.237Z,13.87
2018-06-21T03:55:35.626Z,13.27
2018-06-21T03:58:05.024Z,15.43
2018-06-21T04:00:34.429Z,13.77
2018-06-21T04:03:04.066Z,15.97
2018-06-21T04:05:33.402Z,17.07
2018-06-21T04:08:02.840Z,12.10
2018-06-21T04:10:32.143Z,13.30
2018-06-21T04:13:01.602Z,12.73
2018-06-21T04:15:30.961Z,12.30
2018-06-21T04:18:00.394Z,11.53
2018-06-21T04:20:29.725Z,11.00
2018-06-21T04:22:59.328Z,10.57
2018-06-21T04:25:29.475Z,11.07
2018-06-21T04:27:58.751Z,9.93
2018-06-21T04:30:28.087Z,10.43
2018-06-21T04:32:57.618Z,11.30
2018-06-21T04:35:27.154Z,11.23
2018-06-21T04:37:56.620Z,14.43
2018-06-21T04:40:25.986Z,12.30
2018-06-21T04:42:55.287Z,11.27
2018-06-21T04:45:24.785Z,11.03
2018-06-21T04:47:54.315Z,11.73
2018-06-21T04:50:23.633Z,11.13
2018-06-21T04:52:52.933Z,10.17
2018-06-21T04:55:22.236Z,9.87
2018-06-21T04:57:51.647Z,12.30
2018-06-21T05:00:21.002Z,9.93
2018-06-21T05:02:50.301Z,10.50
2018-06-21T05:05:19.719Z,15.40
2018-06-21T05:07:49.307Z,12.83
2018-06-21T05:10:18.608Z,14.10
2018-06-21T05:12:47.930Z,14.37
2018-06-21T05:15:17.302Z,14.70
2018-06-21T05:17:46.618Z,19.40
2018-06-21T05:20:15.920Z,17.20
2018-06-21T05:22:45.286Z,19.03
2018-06-21T05:25:14.827Z,22.33
2018-06-21T05:27:44.064Z,21.97
2018-06-21T05:30:13.460Z,24.03
2018-06-21T05:32:42.833Z,22.17
2018-06-21T05:35:12.219Z,23.43
2018-06-21T05:37:41.629Z,21.90
2018-06-21T05:40:27.314Z,22.23
2018-06-21T05:42:56.634Z,26.27
2018-06-21T05:45:25.903Z,25.73
2018-06-21T05:47:55.177Z,24.50
2018-06-21T05:50:24.594Z,24.73
2018-06-21T05:52:54.023Z,25.07
2018-06-21T05:55:23.328Z,25.50
2018-06-21T05:57:52.820Z,27.03
2018-06-21T06:00:22.343Z,30.20
2018-06-21T06:02:51.893Z,30.73
2018-06-21T06:05:21.280Z,27.47
2018-06-21T06:07:50.810Z,28.20
2018-06-21T06:10:20.440Z,25.33
2018-06-21T06:12:49.771Z,29.97
2018-06-21T06:15:19.045Z,27.27
2018-06-21T06:17:48.322Z,28.93
2018-06-21T06:20:17.592Z,27.87
2018-06-21T06:22:46.882Z,26.27
2018-06-21T06:25:15.968Z,28.30
2018-06-21T06:27:45.310Z,25.10
2018-06-21T06:30:14.833Z,24.20
2018-06-21T06:32:44.256Z,21.73
2018-06-21T06:35:13.666Z,20.43
2018-06-21T06:37:42.807Z,21.30
2018-06-21T06:40:12.222Z,22.70
2018-06-21T06:42:41.597Z,19.57
2018-06-21T06:45:10.895Z,20.17
2018-06-21T06:47:40.334Z,18.70
2018-06-21T06:50:09.919Z,19.40
2018-06-21T06:52:40.302Z,20.47
2018-06-21T06:55:09.669Z,17.83
2018-06-21T06:57:39.461Z,20.43
2018-06-21T07:00:09.086Z,16.00
2018-06-21T07:02:38.484Z,16.73
2018-06-21T07:05:08.539Z,16.67
2018-06-21T07:07:38.049Z,14.27
2018-06-21T07:10:07.469Z,13.93
2018-06-21T07:12:36.767Z,17.37
2018-06-21T07:15:06.189Z,16.20
2018-06-21T07:17:35.518Z,15.03
2018-06-21T07:20:04.809Z,14.43
2018-06-21T07:22:34.113Z,14.27
2018-06-21T07:25:03.397Z,16.13
2018-06-21T07:27:32.731Z,13.07
2018-06-21T07:30:02.047Z,13.93
2018-06-21T07:32:31.381Z,12.43
2018-06-21T07:35:00.712Z,12.53
2018-06-21T07:37:30.253Z,11.50
2018-06-21T07:39:59.500Z,11.13
2018-06-21T07:42:28.821Z,11.60
2018-06-21T07:44:58.142Z,10.20
2018-06-21T07:47:27.131Z,9.03
2018-06-21T07:49:56.396Z,8.70
2018-06-21T07:52:25.691Z,7.23
2018-06-21T07:54:55.089Z,6.63
2018-06-21T07:57:24.367Z,4.93
2018-06-21T07:59:53.837Z,4.37
2018-06-21T08:02:23.320Z,6.03
2018-06-21T08:04:52.618Z,6.60
2018-06-21T08:07:22.920Z,4.40
2018-06-21T08:09:52.197Z,5.43
2018-06-21T08:12:21.450Z,4.73
2018-06-21T08:14:50.748Z,5.40
2018-06-21T08:17:19.990Z,5.57
2018-06-21T08:19:49.329Z,5.63
2018-06-21T08:22:18.619Z,5.00
2018-06-21T08:24:47.898Z,5.97
2018-06-21T08:27:17.171Z,3.00
2018-06-21T08:29:46.554Z,4.90
2018-06-21T08:32:15.962Z,4.63
2018-06-21T08:34:45.526Z,6.73
2018-06-21T08:37:14.872Z,4.67
2018-06-21T08:39:44.216Z,6.27
2018-06-21T08:42:13.556Z,5.50
2018-06-21T08:44:43.048Z,4.47
2018-06-21T08:47:12.438Z,3.87
2018-06-21T08:49:41.979Z,4.63
2018-06-21T08:52:11.298Z,4.40
2018-06-21T08:54:40.755Z,5.67
2018-06-21T08:57:10.141Z,4.83
2018-06-21T08:59:39.588Z,3.73
2018-06-21T09:02:08.089Z,5.33
2018-06-21T09:04:37.389Z,6.80
2018-06-21T09:07:06.677Z,7.90
2018-06-21T09:09:35.992Z,4.00
2018-06-21T09:12:05.332Z,5.60
2018-06-21T09:14:34.599Z,3.90
2018-06-21T09:17:03.868Z,3.90
2018-06-21T09:19:33.131Z,4.97
2018-06-21T09:22:02.436Z,3.00
2018-06-21T09:24:31.504Z,4.47
2018-06-21T09:30:00.338Z,7.97
2018-06-21T09:32:30.752Z,3.00
2018-06-21T09:35:00.031Z,5.57
2018-06-21T09:37:34.406Z,4.10
2018-06-21T09:40:08.769Z,5.20
2018-06-21T09:43:50.298Z,5.13
2018-06-21T09:46:15.506Z,3.13
2018-06-21T09:48:49.826Z,4.00
2018-06-21T09:51:19.556Z,4.50
2018-06-21T09:53:48.821Z,4.37
2018-06-21T09:56:18.172Z,4.70
2018-06-21T09:58:47.507Z,3.70
2018-06-21T10:01:16.953Z,4.67
2018-06-21T10:03:46.449Z,8.07
2018-06-21T10:06:15.734Z,6.00
2018-06-21T10:08:45.028Z,5.20
2018-06-21T10:11:14.316Z,9.20
2018-06-21T10:13:43.628Z,5.10
2018-06-21T10:16:13.080Z,5.63
2018-06-21T10:18:42.415Z,7.10
2018-06-21T10:21:11.883Z,4.53
2018-06-21T10:23:40.880Z,4.53
2018-06-21T10:26:10.255Z,3.83
2018-06-21T10:28:39.617Z,4.17
2018-06-21T10:31:08.922Z,4.30
2018-06-21T10:33:38.230Z,8.60
2018-06-21T10:36:07.566Z,4.23
2018-06-21T10:38:36.841Z,5.47
2018-06-21T10:41:06.233Z,7.07
2018-06-21T10:43:35.514Z,6.23
2018-06-21T10:46:04.825Z,2.77
2018-06-21T10:48:34.234Z,2.83
2018-06-21T10:51:03.547Z,4.27
2018-06-21T10:53:32.795Z,6.67
2018-06-21T10:56:02.099Z,4.27
2018-06-21T10:58:31.458Z,3.57
2018-06-21T11:01:00.781Z,4.30
2018-06-21T11:03:29.985Z,4.97
2018-06-21T11:05:59.242Z,5.00
2018-06-21T11:08:28.629Z,5.37
2018-06-21T11:10:57.909Z,3.00
2018-06-21T11:13:27.176Z,4.27
2018-06-21T11:15:56.594Z,3.50
2018-06-21T11:18:25.850Z,7.10
2018-06-21T11:20:55.153Z,5.90
2018-06-21T11:23:24.414Z,4.30
2018-06-21T11:25:53.735Z,3.83
2018-06-21T11:28:23.069Z,3.70
2018-06-21T11:30:52.347Z,4.83
2018-06-21T11:33:21.633Z,5.67
2018-06-21T11:35:50.919Z,5.10
2018-06-21T11:38:20.318Z,5.67
2018-06-21T11:40:49.617Z,4.13
2018-06-21T11:43:18.957Z,5.77
2018-06-21T11:45:48.238Z,2.40
2018-06-21T11:48:17.552Z,4.47
2018-06-21T11:50:46.867Z,2.63
2018-06-21T11:53:17.231Z,6.00
2018-06-21T11:55:46.617Z,3.30
2018-06-21T11:58:15.866Z,6.20
2018-06-21T12:00:49.254Z,2.93
2018-06-21T12:03:18.762Z,4.17
2018-06-21T12:05:48.443Z,4.03
2018-06-21T12:08:17.784Z,4.10
2018-06-21T12:10:47.018Z,8.10
2018-06-21T12:13:16.313Z,4.73
2018-06-21T12:15:45.555Z,7.07
2018-06-21T12:18:14.922Z,4.97
2018-06-21T12:20:44.314Z,3.77
2018-06-21T12:23:13.579Z,6.63
2018-06-21T12:25:42.970Z,3.90
2018-06-21T12:28:12.550Z,2.43
2018-06-21T12:30:42.023Z,2.50
2018-06-21T12:33:11.323Z,5.83
2018-06-21T12:35:41.173Z,6.13
2018-06-21T12:38:10.638Z,4.00
2018-06-21T12:40:39.960Z,6.80
2018-06-21T12:43:09.420Z,5.83
2018-06-21T12:45:38.706Z,5.33
2018-06-21T12:48:07.988Z,4.33
2018-06-21T12:50:37.347Z,4.00
2018-06-21T12:53:06.596Z,3.43
2018-06-21T12:55:35.895Z,3.30
2018-06-21T12:58:05.249Z,4.60
2018-06-21T13:00:34.541Z,5.20
2018-06-21T13:03:03.792Z,3.73
2018-06-21T13:05:33.173Z,3.30
2018-06-21T13:08:02.408Z,4.77
2018-06-21T13:10:48.453Z,7.13
2018-06-21T13:13:23.867Z,10.20
2018-06-21T13:15:53.248Z,5.13
2018-06-21T13:18:22.557Z,4.73
2018-06-21T13:20:51.878Z,5.17
2018-06-21T13:23:21.171Z,7.17
2018-06-21T13:25:50.433Z,8.30
2018-06-21T13:28:19.697Z,5.27
2018-06-21T13:30:48.970Z,4.67
2018-06-21T13:33:18.294Z,5.33
2018-06-21T13:35:47.609Z,7.77
2018-06-21T13:38:16.917Z,4.77
2018-06-21T13:40:46.195Z,4.30
2018-06-21T13:43:15.487Z,3.67
2018-06-21T13:45:44.932Z,5.43
2018-06-21T13:48:14.240Z,7.03
2018-06-21T13:50:43.568Z,5.03
2018-06-21T13:53:12.928Z,3.17
2018-06-21T13:55:42.252Z,6.83
2018-06-21T13:58:11.533Z,3.67
2018-06-21T14:00:40.863Z,6.33
2018-06-21T14:03:10.177Z,7.77
2018-06-21T14:05:39.516Z,4.00
2018-06-21T14:08:08.966Z,4.07
2018-06-21T14:10:44.882Z,3.97
2018-06-21T14:13:14.148Z,5.03
2018-06-21T14:15:43.461Z,3.70
2018-06-21T14:18:12.735Z,9.20
2018-06-21T14:20:42.090Z,6.50
2018-06-21T14:23:11.383Z,4.07
2018-06-21T14:25:40.648Z,4.17
2018-06-21T14:28:10.003Z,5.97
2018-06-21T14:30:39.456Z,8.53
2018-06-21T14:33:08.722Z,2.53
2018-06-21T14:35:38.106Z,8.30
2018-06-21T14:38:07.377Z,6.63
2018-06-21T14:40:36.625Z,3.23
2018-06-21T14:43:06.117Z,7.57
2018-06-21T14:45:35.375Z,4.43
2018-06-21T14:48:04.777Z,5.00
2018-06-21T14:50:34.073Z,3.90
2018-06-21T14:53:04.368Z,4.60
2018-06-21T14:55:33.738Z,5.00
2018-06-21T14:58:03.005Z,7.60
2018-06-21T15:00:32.395Z,4.67
2018-06-21T15:03:01.771Z,6.73
2018-06-21T15:05:31.050Z,4.40
2018-06-21T15:08:00.414Z,4.93
2018-06-21T15:10:29.548Z,4.00
2018-06-21T15:12:58.834Z,4.50
2018-06-21T15:15:28.074Z,4.23
2018-06-21T15:17:57.327Z,3.97
2018-06-21T15:20:26.671Z,3.57
2018-06-21T15:22:58.996Z,3.43
2018-06-21T15:25:28.291Z,5.97
2018-06-21T15:27:57.536Z,4.40
2018-06-21T15:30:26.787Z,5.83
2018-06-21T15:32:56.187Z,5.60
2018-06-21T15:35:25.502Z,3.37
2018-06-21T15:37:54.817Z,6.37
2018-06-21T15:40:24.088Z,5.17
2018-06-21T15:42:53.401Z,6.40
2018-06-21T15:45:22.696Z,3.97
2018-06-21T15:47:52.055Z,4.43
2018-06-21T15:50:21.395Z,4.10
2018-06-21T15:52:50.666Z,2.63
2018-06-21T15:55:19.940Z,6.77
2018-06-21T15:57:49.261Z,11.47
2018-06-21T16:00:18.541Z,2.73
2018-06-21T16:02:47.917Z,4.27
2018-06-21T16:05:17.165Z,5.23
2018-06-21T16:07:46.524Z,2.77
2018-06-21T16:10:15.929Z,2.67
2018-06-21T16:12:45.226Z,7.43
2018-06-21T16:15:14.550Z,4.80
2018-06-21T16:17:43.917Z,4.93
2018-06-21T16:20:13.359Z,3.80
2018-06-21T16:22:42.917Z,6.40
2018-06-21T16:25:12.299Z,6.00
2018-06-21T16:27:41.714Z,3.83
2018-06-21T16:30:11.196Z,5.53
2018-06-21T16:32:40.587Z,5.83
2018-06-21T16:35:09.964Z,8.63
2018-06-21T16:37:39.326Z,4.17
2018-06-21T16:40:08.713Z,3.37
2018-06-21T16:42:38.078Z,4.97
2018-06-21T16:45:07.412Z,4.03
2018-06-21T16:47:36.676Z,4.50
2018-06-21T16:50:05.956Z,4.07
2018-06-21T16:52:35.254Z,3.40
2018-06-21T16:55:04.569Z,3.53
2018-06-21T16:57:33.830Z,7.70
2018-06-21T17:00:03.072Z,6.73
2018-06-21T17:02:32.359Z,4.27
2018-06-21T17:05:01.632Z,3.63
2018-06-21T17:07:30.911Z,4.13
2018-06-21T17:10:00.301Z,2.87
2018-06-21T17:12:29.581Z,4.37
2018-06-21T17:14:58.917Z,5.73
2018-06-21T17:17:28.221Z,3.37
2018-06-21T17:19:57.490Z,5.53
2018-06-21T17:22:26.743Z,3.87
2018-06-21T17:24:56.029Z,5.13
2018-06-21T17:27:25.291Z,6.10
2018-06-21T17:29:54.565Z,4.73
2018-06-21T17:32:23.863Z,6.83
2018-06-21T17:34:53.254Z,4.50
2018-06-21T17:37:22.499Z,6.07
2018-06-21T17:39:51.876Z,5.40
2018-06-21T17:42:21.146Z,8.20
2018-06-21T17:44:50.607Z,8.33
2018-06-21T17:47:19.904Z,3.87
2018-06-21T17:49:49.264Z,12.27
2018-06-21T17:52:18.620Z,4.73
2018-06-21T17:54:48.091Z,4.47
2018-06-21T17:57:17.461Z,4.70
2018-06-21T17:59:49.581Z,4.73
2018-06-21T18:02:18.940Z,5.40
2018-06-21T18:04:48.243Z,4.70
2018-06-21T18:07:18.341Z,6.40
2018-06-21T18:09:50.112Z,7.90
2018-06-21T18:12:19.625Z,4.70
2018-06-21T18:14:48.889Z,4.33
2018-06-21T18:17:18.355Z,5.77
2018-06-21T18:19:47.688Z,6.83
2018-06-21T18:22:17.017Z,6.83
2018-06-21T18:24:47.525Z,4.23
2018-06-21T18:27:16.913Z,3.93
2018-06-21T18:29:46.206Z,4.30
2018-06-21T18:32:15.626Z,7.20
2018-06-21T18:34:44.967Z,5.30
2018-06-21T18:37:14.333Z,4.83
2018-06-21T18:39:43.931Z,3.40
2018-06-21T18:42:13.247Z,4.27
2018-06-21T18:44:42.637Z,2.77
2018-06-21T18:47:12.015Z,3.27
2018-06-21T18:49:41.426Z,3.73
2018-06-21T18:52:10.812Z,3.73
2018-06-21T18:54:40.180Z,7.13
2018-06-21T18:57:09.571Z,5.00
2018-06-21T18:59:38.884Z,4.67
2018-06-21T19:02:08.245Z,3.83
2018-06-21T19:04:37.551Z,1.23
2018-06-21T19:07:13.049Z,4.60
2018-06-21T19:09:47.655Z,3.43
2018-06-21T19:12:18.245Z,3.90
2018-06-21T19:14:47.553Z,3.83
2018-06-21T19:17:16.852Z,4.10
2018-06-21T19:19:46.261Z,5.33
2018-06-21T19:22:15.391Z,6.33
2018-06-21T19:24:44.695Z,6.67
2018-06-21T19:27:13.946Z,4.07
2018-06-21T19:29:43.517Z,3.90
2018-06-21T19:32:13.192Z,6.10
2018-06-21T19:34:42.503Z,4.07
2018-06-21T19:37:12.523Z,3.63
2018-06-21T19:39:41.705Z,6.00
2018-06-21T19:42:11.194Z,6.23
2018-06-21T19:44:40.575Z,4.97
2018-06-21T19:47:10.252Z,6.40
2018-06-21T19:49:39.593Z,6.17
2018-06-21T19:52:09.001Z,7.77
2018-06-21T19:54:38.294Z,6.77
2018-06-21T19:57:07.607Z,6.83
2018-06-21T19:59:36.945Z,5.00
2018-06-21T20:02:06.231Z,6.20
2018-06-21T20:04:35.610Z,5.33
2018-06-21T20:07:04.875Z,6.60
2018-06-21T20:09:34.201Z,6.77
2018-06-21T20:12:05.198Z,10.03
2018-06-21T20:14:35.537Z,5.97
2018-06-21T20:17:06.954Z,11.43
2018-06-21T20:19:41.495Z,8.73
2018-06-21T20:22:11.030Z,4.63
2018-06-21T20:24:40.636Z,6.50
2018-06-21T20:27:09.915Z,8.90
2018-06-21T20:29:39.252Z,7.43
2018-06-21T20:32:08.639Z,6.57
2018-06-21T20:34:37.936Z,8.07
2018-06-21T20:37:11.339Z,8.70
2018-06-21T20:39:40.766Z,7.77
2018-06-21T20:42:10.141Z,4.10
2018-06-21T20:44:39.472Z,7.80
2018-06-21T20:47:08.900Z,7.07
2018-06-21T20:49:38.289Z,7.13
2018-06-21T20:52:12.083Z,11.47
2018-06-21T20:54:41.525Z,5.70
2018-06-21T20:57:11.021Z,5.90
2018-06-21T20:59:40.197Z,8.03
2018-06-21T21:02:10.906Z,6.83
2018-06-21T21:05:12.749Z,3.37
2018-06-21T21:07:42.489Z,6.30
2018-06-21T21:10:13.081Z,4.13
2018-06-21T21:12:42.552Z,8.37
2018-06-21T21:15:13.072Z,6.03
2018-06-21T21:17:42.954Z,7.37
2018-06-21T21:20:12.570Z,7.70
2018-06-21T21:22:42.318Z,5.97
2018-06-21T21:25:13.187Z,6.87
2018-06-21T21:27:47.993Z,4.73
2018-06-21T21:30:18.651Z,3.47
2018-06-21T21:32:48.346Z,6.63
2018-06-21T21:35:18.399Z,6.23
2018-06-21T21:37:48.151Z,5.17
2018-06-21T21:40:18.144Z,7.87
2018-06-21T21:42:47.505Z,6.53
2018-06-21T21:45:16.963Z,6.43
2018-06-21T21:47:46.935Z,7.83
2018-06-21T21:50:16.530Z,5.63
2018-06-21T21:52:46.489Z,6.13
2018-06-21T21:55:15.915Z,11.03
2018-06-21T21:57:47.754Z,4.73
2018-06-21T22:01:00.609Z,6.40
2018-06-21T22:03:31.793Z,6.43
2018-06-21T22:06:01.146Z,7.53
2018-06-21T22:08:30.391Z,6.17
2018-06-21T22:10:59.703Z,4.57
2018-06-21T22:13:29.094Z,4.83
2018-06-21T22:15:58.339Z,5.93
2018-06-21T22:18:27.701Z,6.03
2018-06-21T22:20:57.027Z,9.00
2018-06-21T22:23:26.307Z,8.23
2018-06-21T22:25:55.649Z,9.97
2018-06-21T22:28:24.945Z,6.47
2018-06-21T22:30:54.208Z,5.77
2018-06-21T22:33:24.462Z,5.90
2018-06-21T22:35:54.359Z,5.93
2018-06-21T22:38:25.594Z,6.37
2018-06-21T22:40:56.110Z,6.00
2018-06-21T22:43:25.434Z,7.70
2018-06-21T22:45:55.283Z,11.03
2018-06-21T22:48:25.081Z,6.03
2018-06-21T22:50:55.152Z,7.80
2018-06-21T22:53:24.573Z,8.10
2018-06-21T22:55:55.102Z,7.33
2018-06-21T22:58:24.404Z,6.23
2018-06-21T23:00:53.699Z,6.20
2018-06-21T23:03:22.976Z,5.77
2018-06-21T23:05:52.234Z,4.87
2018-06-21T23:08:21.498Z,8.03
2018-06-21T23:10:50.881Z,9.57
2018-06-21T23:13:20.118Z,7.50
2018-06-21T23:15:49.537Z,8.87
2018-06-21T23:19:28.794Z,7.47
2018-06-21T23:21:58.204Z,8.87
2018-06-21T23:24:27.709Z,4.17
2018-06-21T23:26:57.082Z,9.57
2018-06-21T23:29:26.313Z,10.07
2018-06-21T23:31:55.680Z,5.30
2018-06-21T23:34:24.947Z,9.87
2018-06-21T23:36:54.214Z,4.93
2018-06-21T23:39:25.418Z,5.70
2018-06-21T23:41:54.652Z,11.43
2018-06-21T23:44:30.082Z,4.17
2018-06-21T23:46:59.365Z,6.00
2018-06-21T23:49:28.662Z,7.30
2018-06-21T23:51:57.958Z,7.53
2018-06-21T23:54:27.876Z,6.60
2018-06-21T23:56:57.139Z,5.50
2018-06-21T23:59:29.100Z,5.63
